createdAt,value
2023-05-22T00:02:11.865Z,94.67
2023-05-22T00:04:38.745Z,94.98
2023-05-22T00:07:06.737Z,94.53
2023-05-22T00:09:33.625Z,94.83
2023-05-22T00:12:00.497Z,94.73
2023-05-22T00:14:27.348Z,95.58
2023-05-22T00:16:55.573Z,95.65
2023-05-22T00:19:23.222Z,95.90
2023-05-22T00:21:51.433Z,96.31
2023-05-22T00:24:18.407Z,96.44
2023-05-22T00:26:46.161Z,95.89
2023-05-22T00:29:13.152Z,96.03
2023-05-22T00:31:40.003Z,95.42
2023-05-22T00:34:07.092Z,95.62
2023-05-22T00:36:34.095Z,95.95
2023-05-22T00:39:01.687Z,96.25
2023-05-22T00:41:28.601Z,96.62
2023-05-22T00:43:55.465Z,95.85
2023-05-22T00:46:23.020Z,96.05
2023-05-22T00:48:50.155Z,96.27
2023-05-22T00:51:16.992Z,96.03
2023-05-22T00:53:44.605Z,95.70
2023-05-22T00:56:12.450Z,95.13
2023-05-22T00:58:39.410Z,94.95
2023-05-22T01:01:07.787Z,94.94
2023-05-22T01:03:45.301Z,95.33
2023-05-22T01:06:18.427Z,94.00
2023-05-22T01:08:45.541Z,94.71
2023-05-22T01:11:26.144Z,93.79
2023-05-22T01:14:01.325Z,94.19
2023-05-22T01:17:12.630Z,93.43
2023-05-22T01:19:39.536Z,93.07
2023-05-22T01:22:58.622Z,92.85
2023-05-22T01:26:03.720Z,93.04
2023-05-22T01:28:49.823Z,93.33
2023-05-22T01:31:18.415Z,93.51
2023-05-22T01:34:03.627Z,93.70
2023-05-22T01:36:32.587Z,94.02
2023-05-22T01:39:01.642Z,94.28
2023-05-22T01:41:29.962Z,93.72
2023-05-22T01:43:56.869Z,93.67
2023-05-22T01:46:30.653Z,94.62
2023-05-22T01:48:58.456Z,94.75
2023-05-22T01:51:34.076Z,93.43
2023-05-22T01:54:37.947Z,92.94
2023-05-22T01:57:15.189Z,93.46
2023-05-22T01:59:45.633Z,93.31
2023-05-22T02:02:17.793Z,93.40
2023-05-22T02:04:58.378Z,94.05
2023-05-22T02:07:25.994Z,93.85
2023-05-22T02:09:54.269Z,93.97
2023-05-22T02:12:22.542Z,94.24
2023-05-22T02:14:49.842Z,94.16
2023-05-22T02:17:18.256Z,93.36
2023-05-22T02:19:45.542Z,93.48
2023-05-22T02:22:13.950Z,93.92
2023-05-22T02:24:42.192Z,94.69
2023-05-22T02:27:09.882Z,93.71
2023-05-22T02:29:36.735Z,93.95
2023-05-22T02:32:04.204Z,93.50
2023-05-22T02:34:31.839Z,92.96
2023-05-22T02:37:00.078Z,93.52
2023-05-22T02:39:27.891Z,93.96
2023-05-22T02:41:55.062Z,93.51
2023-05-22T02:44:22.147Z,93.62
2023-05-22T02:46:49.187Z,93.90
2023-05-22T02:49:16.403Z,94.02
2023-05-22T02:51:47.654Z,93.97
2023-05-22T02:54:16.365Z,93.75
2023-05-22T02:56:43.722Z,94.26
2023-05-22T02:59:11.418Z,94.28
2023-05-22T03:01:39.942Z,94.71
2023-05-22T03:04:07.016Z,94.11
2023-05-22T03:06:35.599Z,93.41
2023-05-22T03:09:04.338Z,93.44
2023-05-22T03:11:31.891Z,93.85
2023-05-22T03:13:58.941Z,94.65
2023-05-22T03:16:27.027Z,94.90
2023-05-22T03:19:14.672Z,95.51
2023-05-22T03:21:44.444Z,94.27
2023-05-22T03:24:12.717Z,94.41
2023-05-22T03:26:39.802Z,94.54
2023-05-22T03:29:09.685Z,94.27
2023-05-22T03:31:40.362Z,94.03
2023-05-22T03:34:11.360Z,93.90
2023-05-22T03:36:38.739Z,93.66
2023-05-22T03:39:06.582Z,92.97
2023-05-22T03:41:38.720Z,93.26
2023-05-22T03:44:06.287Z,92.01
2023-05-22T03:46:34.066Z,92.63
2023-05-22T03:49:01.124Z,95.29
2023-05-22T03:51:27.969Z,94.79
2023-05-22T03:53:54.966Z,93.60
2023-05-22T03:56:21.789Z,95.51
2023-05-22T03:58:50.256Z,96.06
2023-05-22T04:01:18.129Z,96.48
2023-05-22T04:03:45.606Z,93.70
2023-05-22T04:06:13.860Z,94.51
2023-05-22T04:08:40.906Z,95.62
2023-05-22T04:11:08.409Z,95.82
2023-05-22T04:13:35.558Z,94.32
2023-05-22T04:16:04.307Z,94.21
2023-05-22T04:18:31.212Z,94.01
2023-05-22T04:20:58.028Z,93.29
2023-05-22T04:23:24.882Z,94.02
2023-05-22T04:25:51.858Z,94.03
2023-05-22T04:28:22.502Z,95.29
2023-05-22T04:30:49.709Z,95.46
2023-05-22T04:33:18.289Z,95.59
2023-05-22T04:35:45.318Z,95.53
2023-05-22T04:38:12.138Z,95.53
2023-05-22T04:40:39.178Z,95.43
2023-05-22T04:43:06.290Z,94.15
2023-05-22T04:45:33.301Z,94.62
2023-05-22T04:48:02.648Z,94.40
2023-05-22T04:50:33.547Z,94.65
2023-05-22T04:53:00.705Z,94.85
2023-05-22T04:55:27.559Z,94.00
2023-05-22T04:57:54.473Z,94.45
2023-05-22T05:00:26.460Z,93.12
2023-05-22T05:02:53.756Z,94.84
2023-05-22T05:05:20.885Z,94.47
2023-05-22T05:07:50.237Z,94.45
2023-05-22T05:10:18.204Z,95.40
2023-05-22T05:12:45.403Z,94.38
2023-05-22T05:15:12.416Z,92.91
2023-05-22T05:17:39.733Z,92.20
2023-05-22T05:20:08.563Z,93.28
2023-05-22T05:22:35.998Z,91.01
2023-05-22T05:25:05.634Z,92.15
2023-05-22T05:27:33.418Z,93.38
2023-05-22T05:30:01.753Z,94.09
2023-05-22T05:32:44.035Z,93.54
2023-05-22T05:35:42.697Z,92.04
2023-05-22T05:38:11.589Z,91.98
2023-05-22T05:40:41.959Z,91.76
2023-05-22T05:43:10.736Z,89.45
2023-05-22T05:45:38.486Z,89.02
2023-05-22T05:48:06.660Z,87.55
2023-05-22T05:50:35.930Z,86.35
2023-05-22T05:53:03.205Z,86.39
2023-05-22T05:55:32.729Z,86.43
2023-05-22T05:58:01.877Z,85.65
2023-05-22T06:00:39.496Z,84.92
2023-05-22T06:03:06.652Z,82.76
2023-05-22T06:05:52.033Z,82.62
2023-05-22T06:08:34.563Z,81.85
2023-05-22T06:11:02.131Z,81.71
2023-05-22T06:13:38.637Z,81.45
2023-05-22T06:16:06.994Z,80.24
2023-05-22T06:18:34.672Z,80.27
2023-05-22T06:21:01.758Z,81.06
2023-05-22T06:23:28.658Z,80.45
2023-05-22T06:25:56.455Z,79.39
2023-05-22T06:28:25.089Z,79.66
2023-05-22T06:30:52.596Z,78.44
2023-05-22T06:33:22.293Z,79.46
2023-05-22T06:35:49.312Z,79.93
2023-05-22T06:38:16.856Z,78.65
2023-05-22T06:40:44.723Z,79.04
2023-05-22T06:43:18.661Z,80.28
2023-05-22T06:46:00.002Z,80.08
2023-05-22T06:48:43.000Z,79.29
2023-05-22T06:51:15.409Z,80.55
2023-05-22T06:53:42.775Z,79.18
2023-05-22T06:56:17.971Z,79.05
2023-05-22T06:58:57.455Z,79.39
2023-05-22T07:01:36.117Z,79.57
2023-05-22T07:04:09.802Z,79.81
2023-05-22T07:06:53.046Z,79.57
2023-05-22T07:09:20.423Z,79.44
2023-05-22T07:11:49.183Z,78.82
2023-05-22T07:14:18.113Z,78.75
2023-05-22T07:16:46.007Z,78.95
2023-05-22T07:19:16.667Z,79.14
2023-05-22T07:21:43.634Z,78.48
2023-05-22T07:24:12.263Z,77.90
2023-05-22T07:26:46.731Z,77.28
2023-05-22T07:29:14.384Z,77.49
2023-05-22T07:31:42.532Z,75.49
2023-05-22T07:34:10.642Z,72.77
2023-05-22T07:36:38.734Z,72.82
2023-05-22T07:39:06.879Z,73.70
2023-05-22T07:41:39.065Z,73.51
2023-05-22T07:44:07.831Z,72.39
2023-05-22T07:46:38.245Z,72.36
2023-05-22T07:49:25.802Z,71.15
2023-05-22T07:51:52.886Z,70.49
2023-05-22T07:54:21.682Z,70.02
2023-05-22T07:56:52.933Z,70.33
2023-05-22T07:59:22.109Z,68.91
2023-05-22T08:01:50.370Z,68.46
2023-05-22T08:04:17.537Z,67.88
2023-05-22T08:06:44.578Z,67.99
2023-05-22T08:09:11.899Z,68.78
2023-05-22T08:11:42.150Z,67.92
2023-05-22T08:14:09.352Z,68.93
2023-05-22T08:16:36.232Z,68.61
2023-05-22T08:19:07.245Z,70.14
2023-05-22T08:21:34.568Z,68.67
2023-05-22T08:24:02.118Z,68.57
2023-05-22T08:26:30.136Z,69.27
2023-05-22T08:28:58.935Z,69.41
2023-05-22T08:31:26.175Z,70.25
2023-05-22T08:33:53.054Z,71.43
2023-05-22T08:36:20.316Z,69.53
2023-05-22T08:38:47.072Z,70.77
2023-05-22T08:41:14.082Z,70.71
2023-05-22T08:43:41.735Z,70.87
2023-05-22T08:46:09.855Z,70.63
2023-05-22T08:48:37.520Z,71.16
2023-05-22T08:51:06.022Z,71.99
2023-05-22T08:53:37.593Z,71.14
2023-05-22T08:56:08.662Z,70.96
2023-05-22T08:58:37.261Z,69.75
2023-05-22T09:01:06.359Z,70.57
2023-05-22T09:03:35.150Z,70.15
2023-05-22T09:06:02.469Z,68.89
2023-05-22T09:08:29.400Z,68.46
2023-05-22T09:10:56.715Z,70.37
2023-05-22T09:13:31.295Z,69.61
2023-05-22T09:16:00.046Z,68.23
2023-05-22T09:18:28.218Z,69.43
2023-05-22T09:20:57.707Z,69.15
2023-05-22T09:23:25.685Z,69.26
2023-05-22T09:25:56.131Z,68.56
2023-05-22T09:28:23.524Z,68.58
2023-05-22T09:30:51.657Z,66.67
2023-05-22T09:33:19.203Z,66.14
2023-05-22T09:35:51.859Z,66.54
2023-05-22T09:38:18.949Z,66.80
2023-05-22T09:40:45.748Z,66.42
2023-05-22T09:43:13.051Z,65.69
2023-05-22T09:45:39.990Z,62.68
2023-05-22T09:48:09.087Z,63.64
2023-05-22T09:50:40.357Z,63.34
2023-05-22T09:53:08.979Z,62.20
2023-05-22T09:55:36.978Z,60.99
2023-05-22T09:58:05.362Z,63.48
2023-05-22T10:00:34.340Z,62.79
2023-05-22T10:03:12.102Z,61.68
2023-05-22T10:05:43.512Z,60.91
2023-05-22T10:08:28.487Z,60.71
2023-05-22T10:10:55.895Z,58.85
2023-05-22T10:13:24.346Z,57.77
2023-05-22T10:15:51.648Z,57.81
2023-05-22T10:18:18.767Z,56.20
2023-05-22T10:20:47.217Z,56.33
2023-05-22T10:23:17.498Z,55.95
2023-05-22T10:25:47.434Z,55.46
2023-05-22T10:28:26.243Z,54.73
2023-05-22T10:31:00.660Z,55.07
2023-05-22T10:34:01.077Z,54.09
2023-05-22T10:37:13.039Z,55.76
2023-05-22T10:40:28.749Z,54.59
2023-05-22T10:43:04.044Z,57.09
2023-05-22T10:45:31.974Z,55.36
2023-05-22T10:48:03.382Z,56.30
2023-05-22T10:50:30.587Z,56.17
2023-05-22T10:53:26.231Z,55.68
2023-05-22T10:55:55.005Z,56.94
2023-05-22T10:58:33.701Z,59.44
2023-05-22T11:01:20.558Z,55.99
2023-05-22T11:04:00.873Z,56.76
2023-05-22T11:06:46.516Z,56.58
2023-05-22T11:09:43.395Z,56.44
2023-05-22T11:12:27.587Z,57.18
2023-05-22T11:15:00.403Z,57.91
2023-05-22T11:17:29.291Z,56.72
2023-05-22T11:20:05.605Z,56.90
2023-05-22T11:22:36.841Z,57.00
2023-05-22T11:25:04.242Z,54.73
2023-05-22T11:27:31.425Z,55.44
2023-05-22T11:29:59.821Z,55.00
2023-05-22T11:32:27.502Z,55.44
2023-05-22T11:34:56.254Z,54.91
2023-05-22T11:37:23.524Z,55.70
2023-05-22T11:39:57.742Z,55.48
2023-05-22T11:42:25.063Z,55.03
2023-05-22T11:44:51.989Z,54.03
2023-05-22T11:47:19.168Z,53.13
2023-05-22T11:49:46.432Z,54.24
2023-05-22T11:52:13.561Z,52.17
2023-05-22T11:54:40.356Z,51.52
2023-05-22T11:57:08.607Z,52.40
2023-05-22T11:59:35.800Z,52.73
2023-05-22T12:02:02.749Z,51.91
2023-05-22T12:04:29.806Z,51.93
2023-05-22T12:06:57.074Z,50.16
2023-05-22T12:09:24.107Z,52.03
2023-05-22T12:11:51.006Z,50.99
2023-05-22T12:14:17.849Z,51.47
2023-05-22T12:16:45.084Z,51.50
2023-05-22T12:19:13.144Z,51.35
2023-05-22T12:21:42.077Z,50.28
2023-05-22T12:24:09.034Z,50.46
2023-05-22T12:26:36.617Z,51.39
2023-05-22T12:29:06.688Z,50.23
2023-05-22T12:31:38.554Z,49.65
2023-05-22T12:34:08.043Z,50.75
2023-05-22T12:36:45.496Z,48.99
2023-05-22T12:39:22.409Z,48.98
2023-05-22T12:41:49.392Z,50.02
2023-05-22T12:44:16.580Z,48.32
2023-05-22T12:46:43.870Z,47.27
2023-05-22T12:49:11.246Z,45.78
2023-05-22T12:51:38.129Z,45.35
2023-05-22T12:54:05.284Z,46.07
2023-05-22T12:56:32.435Z,44.85
2023-05-22T12:58:59.354Z,42.46
2023-05-22T13:01:26.570Z,46.31
2023-05-22T13:03:53.727Z,43.14
2023-05-22T13:06:20.866Z,43.01
2023-05-22T13:08:47.664Z,41.04
2023-05-22T13:11:14.710Z,40.70
2023-05-22T13:13:41.567Z,39.47
2023-05-22T13:16:10.367Z,41.77
2023-05-22T13:18:37.583Z,42.93
2023-05-22T13:21:04.630Z,40.58
2023-05-22T13:23:31.494Z,42.20
2023-05-22T13:25:58.366Z,41.35
2023-05-22T13:28:25.166Z,40.64
2023-05-22T13:30:51.980Z,41.39
2023-05-22T13:33:18.869Z,40.92
2023-05-22T13:35:45.813Z,41.23
2023-05-22T13:38:12.567Z,38.76
2023-05-22T13:40:39.429Z,40.15
2023-05-22T13:43:06.297Z,39.18
2023-05-22T13:45:33.185Z,36.99
2023-05-22T13:48:00.022Z,36.19
2023-05-22T13:50:26.947Z,35.26
2023-05-22T13:52:53.778Z,34.95
2023-05-22T13:55:21.071Z,33.63
2023-05-22T13:57:47.899Z,38.39
2023-05-22T14:00:15.174Z,35.92
2023-05-22T14:02:42.089Z,34.26
2023-05-22T14:05:09.204Z,33.59
2023-05-22T14:07:36.034Z,34.36
2023-05-22T14:10:03.385Z,33.98
2023-05-22T14:12:30.221Z,33.48
2023-05-22T14:14:57.109Z,31.25
2023-05-22T14:17:24.068Z,34.63
2023-05-22T14:19:51.094Z,33.16
2023-05-22T14:22:17.891Z,35.13
2023-05-22T14:24:44.778Z,36.70
2023-05-22T14:27:11.705Z,37.66
2023-05-22T14:29:38.672Z,38.36
2023-05-22T14:32:05.901Z,36.36
2023-05-22T14:34:32.791Z,39.96
2023-05-22T14:36:59.593Z,41.29
2023-05-22T14:39:26.768Z,40.87
2023-05-22T14:41:54.060Z,41.04
2023-05-22T14:44:22.685Z,41.28
2023-05-22T14:46:51.125Z,40.61
2023-05-22T14:49:18.308Z,41.51
2023-05-22T14:51:48.068Z,40.54
2023-05-22T14:54:18.098Z,41.64
2023-05-22T14:56:46.075Z,41.04
2023-05-22T14:59:12.891Z,43.05
2023-05-22T15:01:39.886Z,41.43
2023-05-22T15:04:08.014Z,42.74
2023-05-22T15:06:35.206Z,41.95
2023-05-22T15:09:02.371Z,41.59
2023-05-22T15:11:29.231Z,40.50
2023-05-22T15:13:56.336Z,39.33
2023-05-22T15:16:23.423Z,40.20
2023-05-22T15:18:50.542Z,40.98
2023-05-22T15:21:17.597Z,43.23
2023-05-22T15:23:44.524Z,41.37
2023-05-22T15:26:11.531Z,41.82
2023-05-22T15:28:38.304Z,43.84
2023-05-22T15:31:05.132Z,41.55
2023-05-22T15:33:34.058Z,41.98
2023-05-22T15:36:00.985Z,40.54
2023-05-22T15:38:28.383Z,38.31
2023-05-22T15:40:55.258Z,38.89
2023-05-22T15:43:23.016Z,40.48
2023-05-22T15:45:51.327Z,41.52
2023-05-22T15:48:18.372Z,44.19
2023-05-22T15:50:45.325Z,41.33
2023-05-22T15:53:13.047Z,43.13
2023-05-22T15:55:40.031Z,46.97
2023-05-22T15:58:08.069Z,46.32
2023-05-22T16:00:41.248Z,45.84
2023-05-22T16:03:08.978Z,45.11
2023-05-22T16:05:37.330Z,46.75
2023-05-22T16:08:07.053Z,45.80
2023-05-22T16:10:34.570Z,43.67
2023-05-22T16:13:01.428Z,42.30
2023-05-22T16:15:28.223Z,41.15
2023-05-22T16:17:55.079Z,42.52
2023-05-22T16:20:22.710Z,43.04
2023-05-22T16:22:49.646Z,43.24
2023-05-22T16:25:17.427Z,43.76
2023-05-22T16:27:44.366Z,43.10
2023-05-22T16:30:12.379Z,44.95
2023-05-22T16:32:39.327Z,45.65
2023-05-22T16:35:06.448Z,44.69
2023-05-22T16:37:33.765Z,41.46
2023-05-22T16:40:00.976Z,42.10
2023-05-22T16:42:27.860Z,42.93
2023-05-22T16:44:54.711Z,44.41
2023-05-22T16:47:21.941Z,45.41
2023-05-22T16:49:50.162Z,46.49
2023-05-22T16:52:18.117Z,45.91
2023-05-22T16:54:44.982Z,44.54
2023-05-22T16:57:11.888Z,44.43
2023-05-22T16:59:38.949Z,45.38
2023-05-22T17:02:05.973Z,45.64
2023-05-22T17:04:32.872Z,46.56
2023-05-22T17:06:59.804Z,47.35
2023-05-22T17:09:27.735Z,47.90
2023-05-22T17:11:54.898Z,48.71
2023-05-22T17:14:23.007Z,47.02
2023-05-22T17:16:49.879Z,46.72
2023-05-22T17:19:20.022Z,45.72
2023-05-22T17:21:46.905Z,45.05
2023-05-22T17:24:14.867Z,46.10
2023-05-22T17:26:42.335Z,46.43
2023-05-22T17:29:10.969Z,47.80
2023-05-22T17:31:39.505Z,48.99
2023-05-22T17:34:06.702Z,49.04
2023-05-22T17:36:33.777Z,49.30
2023-05-22T17:39:00.872Z,48.22
2023-05-22T17:41:27.703Z,50.38
2023-05-22T17:43:55.972Z,50.31
2023-05-22T17:46:23.102Z,49.52
2023-05-22T17:48:49.995Z,49.15
2023-05-22T17:51:16.884Z,49.58
2023-05-22T17:53:43.634Z,50.43
2023-05-22T17:56:10.670Z,50.09
2023-05-22T17:58:37.532Z,50.85
2023-05-22T18:01:04.452Z,49.67
2023-05-22T18:03:31.481Z,50.60
2023-05-22T18:05:58.782Z,51.14
2023-05-22T18:08:25.741Z,50.92
2023-05-22T18:10:52.677Z,51.30
2023-05-22T18:13:19.701Z,51.31
2023-05-22T18:15:48.326Z,51.19
2023-05-22T18:18:15.140Z,51.36
2023-05-22T18:20:42.156Z,52.46
2023-05-22T18:23:10.106Z,52.24
2023-05-22T18:25:36.948Z,51.26
2023-05-22T18:28:03.788Z,52.59
2023-05-22T18:30:30.623Z,51.79
2023-05-22T18:32:57.513Z,55.12
2023-05-22T18:35:24.448Z,54.46
2023-05-22T18:37:51.500Z,56.41
2023-05-22T18:40:18.810Z,58.33
2023-05-22T18:42:45.670Z,58.09
2023-05-22T18:45:12.602Z,57.66
2023-05-22T18:47:39.390Z,56.48
2023-05-22T18:50:06.913Z,56.50
2023-05-22T18:52:33.794Z,58.26
2023-05-22T18:55:00.964Z,57.09
2023-05-22T18:57:27.752Z,58.22
